Time;durP1;ratioP1;P1;durP2;ratioP2;P2;SDS_P1;SDS_P2;PMS_P1;PMS_P2;Temp;Humidity;BMP_temperature;BMP_pressure;BME280_temperature;BME280_humidity;BME280_pressure;Samples;Min_cycle;Max_cycle;Signal;HPM_P1;HPM_P2
2023/08/11 00:00:21;;;;;;;24.03;5.23;;;28.40;53.40;;;;;;5120722;27;20574;-78
2023/08/11 00:02:49;;;;;;;22.80;5.10;;;28.40;54.00;;;;;;5110161;28;20232;-87
2023/08/11 00:05:17;;;;;;;30.63;5.93;;;28.40;54.00;;;;;;5105350;28;20209;-91
2023/08/11 00:07:43;;;;;;;23.20;4.90;;;28.50;54.00;;;;;;5104905;28;20843;-83
2023/08/11 00:10:12;;;;;;;18.03;4.77;;;28.40;54.00;;;;;;5099828;28;20206;-81
2023/08/11 00:12:39;;;;;;;30.40;5.77;;;28.40;54.00;;;;;;5105079;28;20239;-89
2023/08/11 00:15:07;;;;;;;31.33;5.80;;;28.40;54.00;;;;;;5096439;28;20194;-88
2023/08/11 00:17:36;;;;;;;19.47;4.97;;;28.50;54.00;;;;;;5103489;28;20206;-76
2023/08/11 00:20:06;;;;;;;27.43;5.83;;;28.40;54.00;;;;;;5104108;28;20324;-79
2023/08/11 00:22:32;;;;;;;38.30;6.43;;;28.40;54.00;;;;;;5102607;28;20198;-77
2023/08/11 00:25:00;;;;;;;22.73;5.50;;;28.40;54.00;;;;;;5113077;28;20197;-77
2023/08/11 00:27:27;;;;;;;29.53;5.50;;;28.50;54.60;;;;;;5106725;28;20230;-81
2023/08/11 00:29:56;;;;;;;25.80;5.50;;;28.40;54.00;;;;;;5103915;28;20206;-81
2023/08/11 00:32:23;;;;;;;40.20;6.80;;;28.40;54.00;;;;;;5104194;28;20310;-78
2023/08/11 00:34:52;;;;;;;62.50;8.93;;;28.40;53.90;;;;;;5103957;28;20203;-75
2023/08/11 00:37:19;;;;;;;24.23;5.40;;;28.40;54.00;;;;;;5088163;28;20199;-76
2023/08/11 00:39:46;;;;;;;26.13;5.70;;;28.40;53.90;;;;;;5084777;28;20223;-75
2023/08/11 00:42:13;;;;;;;23.77;5.40;;;28.40;54.00;;;;;;5090344;28;20200;-75
2023/08/11 00:44:41;;;;;;;30.50;6.03;;;28.40;53.90;;;;;;5103080;28;20196;-76
2023/08/11 00:47:08;;;;;;;22.17;5.47;;;28.40;53.90;;;;;;5083989;28;20207;-75
2023/08/11 00:49:35;;;;;;;30.33;5.77;;;28.40;53.90;;;;;;5099923;28;20249;-76
2023/08/11 00:52:04;;;;;;;28.77;5.90;;;28.40;53.90;;;;;;5104070;28;20206;-76
2023/08/11 00:54:31;;;;;;;25.67;5.37;;;28.40;54.00;;;;;;5103439;28;20293;-75
2023/08/11 00:56:58;;;;;;;23.33;5.23;;;28.40;54.00;;;;;;5086874;28;20238;-79
2023/08/11 00:59:26;;;;;;;33.13;6.53;;;28.40;54.00;;;;;;5103877;28;20319;-78
2023/08/11 01:01:53;;;;;;;27.33;5.67;;;28.40;54.00;;;;;;5104061;28;20669;-75
2023/08/11 01:04:21;;;;;;;21.00;5.10;;;28.40;54.00;;;;;;5103044;28;20515;-77
2023/08/11 01:06:58;;;;;;;25.73;6.07;;;28.30;53.90;;;;;;5103327;28;20202;-75
2023/08/11 01:09:34;;;;;;;39.37;6.83;;;28.30;53.90;;;;;;5102685;28;20281;-75
2023/08/11 01:12:10;;;;;;;21.53;5.50;;;28.30;53.90;;;;;;5090718;28;20206;-75
2023/08/11 01:14:48;;;;;;;26.17;5.70;;;28.30;53.90;;;;;;5090945;28;20237;-76
2023/08/11 01:17:16;;;;;;;21.90;5.30;;;28.30;53.90;;;;;;5089884;28;20202;-76
2023/08/11 01:19:43;;;;;;;33.40;6.33;;;28.30;53.90;;;;;;5088268;28;20219;-76
2023/08/11 01:22:15;;;;;;;28.87;5.57;;;28.30;53.90;;;;;;5090661;28;20218;-77
2023/08/11 01:24:44;;;;;;;32.20;5.90;;;28.30;54.00;;;;;;5088695;28;20628;-81
2023/08/11 01:27:12;;;;;;;30.53;5.77;;;28.30;54.00;;;;;;5101107;28;20202;-81
2023/08/11 01:29:39;;;;;;;27.80;5.70;;;28.30;54.00;;;;;;5089106;28;20202;-82
2023/08/11 01:32:08;;;;;;;24.80;5.50;;;28.30;54.00;;;;;;5087747;28;20223;-81
2023/08/11 01:34:35;;;;;;;25.30;5.70;;;28.30;54.00;;;;;;5089380;28;20191;-80
2023/08/11 01:37:03;;;;;;;28.03;5.90;;;28.30;54.00;;;;;;5086845;28;20198;-80
2023/08/11 01:39:31;;;;;;;30.93;6.10;;;28.20;53.90;;;;;;5072221;28;20223;-80
2023/08/11 01:42:01;;;;;;;20.23;4.73;;;28.20;54.00;;;;;;5093111;28;20211;-81
2023/08/11 01:44:28;;;;;;;26.30;5.90;;;28.20;53.90;;;;;;5090266;28;20278;-80
2023/08/11 01:46:57;;;;;;;28.57;5.87;;;28.20;53.90;;;;;;5089679;28;20274;-80
2023/08/11 01:49:27;;;;;;;26.23;5.70;;;28.20;54.00;;;;;;5085300;28;20194;-80
2023/08/11 01:51:55;;;;;;;23.63;5.37;;;28.20;54.00;;;;;;5089949;28;20202;-80
2023/08/11 01:54:22;;;;;;;23.63;5.73;;;28.20;54.00;;;;;;5087872;28;20886;-80
2023/08/11 01:56:50;;;;;;;26.57;5.63;;;28.20;54.00;;;;;;5088946;28;20286;-80
2023/08/11 01:59:18;;;;;;;27.53;5.73;;;28.20;54.00;;;;;;5087611;28;20227;-80
2023/08/11 02:01:46;;;;;;;27.53;5.77;;;28.20;54.00;;;;;;5088292;28;20203;-81
2023/08/11 02:04:13;;;;;;;29.17;5.77;;;28.20;54.00;;;;;;5087721;28;20198;-81
2023/08/11 02:06:41;;;;;;;25.57;5.30;;;28.20;54.00;;;;;;5085704;28;20313;-81
2023/08/11 02:09:09;;;;;;;43.00;7.20;;;28.20;54.00;;;;;;5089308;28;20291;-81
2023/08/11 02:11:37;;;;;;;46.20;7.40;;;28.20;54.60;;;;;;5089005;28;20206;-81
2023/08/11 02:14:04;;;;;;;42.60;7.20;;;28.20;54.00;;;;;;5087984;28;20291;-81
2023/08/11 02:16:33;;;;;;;32.27;6.47;;;28.20;54.00;;;;;;5087425;28;20238;-80
2023/08/11 02:19:00;;;;;;;38.20;6.77;;;28.20;54.00;;;;;;5087960;28;20291;-80
2023/08/11 02:21:28;;;;;;;37.47;6.60;;;28.20;54.00;;;;;;5087760;28;20285;-80
2023/08/11 02:23:55;;;;;;;30.90;5.93;;;28.20;54.00;;;;;;5090654;28;20203;-80
2023/08/11 02:26:22;;;;;;;25.90;6.13;;;28.10;54.00;;;;;;5089899;28;20209;-81
2023/08/11 02:28:50;;;;;;;23.97;5.47;;;28.20;54.00;;;;;;5087821;28;20670;-80
2023/08/11 02:31:17;;;;;;;17.67;4.57;;;28.20;54.00;;;;;;5088040;28;20391;-81
2023/08/11 02:33:46;;;;;;;25.00;5.40;;;28.10;54.00;;;;;;5089774;28;20960;-81
2023/08/11 02:36:14;;;;;;;27.70;5.60;;;28.10;54.00;;;;;;5092840;28;20195;-79
2023/08/11 02:38:41;;;;;;;25.77;5.33;;;28.10;54.00;;;;;;5088232;28;20207;-81
2023/08/11 02:41:08;;;;;;;30.13;5.70;;;28.20;54.10;;;;;;5088501;28;20659;-80
2023/08/11 02:43:36;;;;;;;34.83;6.43;;;28.10;54.00;;;;;;5091762;28;20285;-81
2023/08/11 02:46:04;;;;;;;25.37;5.53;;;28.20;54.10;;;;;;5083395;28;20610;-80
2023/08/11 02:48:33;;;;;;;25.07;5.67;;;28.10;54.70;;;;;;5068448;28;20203;-80
2023/08/11 02:51:02;;;;;;;26.10;6.00;;;28.10;54.10;;;;;;5086496;28;21006;-81
2023/08/11 02:53:29;;;;;;;23.50;5.87;;;28.10;54.10;;;;;;5071245;28;20235;-81
2023/08/11 02:55:56;;;;;;;23.43;5.43;;;28.10;54.10;;;;;;5068441;28;20199;-81
2023/08/11 02:58:23;;;;;;;29.43;6.17;;;28.10;54.10;;;;;;5087824;28;20305;-81
2023/08/11 03:00:50;;;;;;;26.33;5.47;;;28.10;54.10;;;;;;5088732;28;20231;-82
2023/08/11 03:03:17;;;;;;;24.97;5.33;;;28.10;54.10;;;;;;5088784;28;20290;-80
2023/08/11 03:05:45;;;;;;;25.77;5.63;;;28.10;54.10;;;;;;5088386;28;20207;-79
2023/08/11 03:08:13;;;;;;;27.30;5.97;;;28.10;54.10;;;;;;5086524;28;20195;-79
2023/08/11 03:10:40;;;;;;;26.63;5.67;;;28.10;54.10;;;;;;5089780;28;20213;-79
2023/08/11 03:13:07;;;;;;;41.60;7.07;;;28.00;54.00;;;;;;5087306;28;20298;-79
2023/08/11 03:15:34;;;;;;;30.67;6.00;;;28.00;54.00;;;;;;5091479;28;20200;-80
2023/08/11 03:18:01;;;;;;;27.77;5.70;;;28.00;54.10;;;;;;5086936;28;20207;-79
2023/08/11 03:20:28;;;;;;;21.30;5.10;;;28.00;54.10;;;;;;5087845;28;20654;-80
2023/08/11 03:22:55;;;;;;;21.53;5.17;;;28.00;54.10;;;;;;5088403;28;20305;-79
2023/08/11 03:25:24;;;;;;;25.07;5.33;;;28.00;54.20;;;;;;5088401;28;20277;-79
2023/08/11 03:27:51;;;;;;;25.03;5.83;;;28.00;54.10;;;;;;5088754;28;20199;-80
2023/08/11 03:30:18;;;;;;;34.87;6.40;;;28.00;54.70;;;;;;5087619;28;20214;-80
2023/08/11 03:32:46;;;;;;;31.00;5.93;;;28.00;54.20;;;;;;5080326;28;20282;-80
2023/08/11 03:35:13;;;;;;;23.67;5.20;;;28.00;54.20;;;;;;5087917;28;20294;-79
2023/08/11 03:37:40;;;;;;;22.73;5.63;;;28.00;54.20;;;;;;5086798;28;20210;-79
2023/08/11 03:40:12;;;;;;;30.33;6.10;;;28.00;54.20;;;;;;5086868;28;20807;-79
2023/08/11 03:42:41;;;;;;;24.97;5.43;;;28.00;54.20;;;;;;5086847;28;20556;-79
2023/08/11 03:45:11;;;;;;;24.17;5.33;;;28.00;54.20;;;;;;5086273;28;20206;-79
2023/08/11 03:47:38;;;;;;;30.57;6.17;;;28.00;54.20;;;;;;5086714;28;20225;-79
2023/08/11 03:50:07;;;;;;;34.93;6.50;;;28.00;54.20;;;;;;5088068;28;20252;-79
2023/08/11 03:52:34;;;;;;;20.53;5.07;;;28.00;54.20;;;;;;5087858;28;20634;-79
2023/08/11 03:55:01;;;;;;;28.80;5.77;;;28.00;54.20;;;;;;5086703;28;20663;-79
2023/08/11 03:57:28;;;;;;;19.57;4.87;;;28.00;54.20;;;;;;5085110;28;20263;-79
2023/08/11 03:59:57;;;;;;;22.97;5.50;;;28.00;54.20;;;;;;5085504;28;20272;-79
2023/08/11 04:02:25;;;;;;;23.70;5.67;;;27.90;54.20;;;;;;5087274;28;20289;-80
2023/08/11 04:04:52;;;;;;;41.67;7.07;;;27.90;54.20;;;;;;5085375;28;20295;-80
2023/08/11 04:07:19;;;;;;;24.87;5.43;;;27.90;54.20;;;;;;5087118;28;20278;-80
2023/08/11 04:09:48;;;;;;;29.03;5.83;;;28.00;54.30;;;;;;5085942;28;20238;-79
2023/08/11 04:12:15;;;;;;;27.77;5.73;;;28.00;54.30;;;;;;5085565;28;20293;-79
2023/08/11 04:14:42;;;;;;;23.13;5.33;;;27.90;54.30;;;;;;5086776;28;20294;-79
2023/08/11 04:17:13;;;;;;;26.80;5.63;;;27.90;54.30;;;;;;5087877;28;20213;-79
2023/08/11 04:19:41;;;;;;;33.40;6.23;;;27.90;54.30;;;;;;5085848;28;20222;-81
2023/08/11 04:22:08;;;;;;;24.37;5.50;;;27.90;54.30;;;;;;5086863;28;20232;-79
2023/08/11 04:24:35;;;;;;;21.43;5.23;;;27.90;54.90;;;;;;5088350;28;20576;-80
2023/08/11 04:27:02;;;;;;;27.87;5.83;;;27.90;54.30;;;;;;5088176;28;20287;-79
2023/08/11 04:29:29;;;;;;;23.77;5.33;;;27.90;54.30;;;;;;5086515;28;20622;-80
2023/08/11 04:31:56;;;;;;;37.73;6.67;;;27.90;54.30;;;;;;5082702;28;20314;-79
2023/08/11 04:34:25;;;;;;;28.63;5.67;;;27.90;54.30;;;;;;5091008;28;20248;-78
2023/08/11 04:36:51;;;;;;;24.57;5.43;;;27.90;54.30;;;;;;5088358;28;20281;-79
2023/08/11 04:39:19;;;;;;;30.03;6.03;;;27.90;54.30;;;;;;5086899;28;20728;-78
2023/08/11 04:41:46;;;;;;;25.67;5.47;;;27.90;54.30;;;;;;5087181;28;20281;-79
2023/08/11 04:44:14;;;;;;;29.17;5.77;;;27.90;54.30;;;;;;5087493;28;20307;-79
2023/08/11 04:48:21;;;;;;;30.40;5.90;;;27.80;53.70;;;;;;5105496;27;20552;-75
2023/08/11 04:50:50;;;;;;;20.07;4.67;;;27.90;54.30;;;;;;5105662;28;20209;-77
2023/08/11 04:53:17;;;;;;;32.60;6.17;;;27.90;55.00;;;;;;5105528;28;20564;-75
2023/08/11 04:55:44;;;;;;;27.03;5.63;;;27.90;54.40;;;;;;5100761;28;20290;-74
2023/08/11 04:58:11;;;;;;;20.67;5.27;;;27.90;54.30;;;;;;5090763;28;20206;-74
2023/08/11 05:00:38;;;;;;;27.17;5.87;;;27.90;54.40;;;;;;5105411;28;20289;-74
2023/08/11 05:03:05;;;;;;;25.77;6.20;;;27.90;54.40;;;;;;5103262;28;20194;-74
2023/08/11 05:05:34;;;;;;;28.63;5.73;;;27.90;54.40;;;;;;5105519;28;20206;-75
2023/08/11 05:08:01;;;;;;;53.57;7.80;;;27.90;54.40;;;;;;5101973;28;20236;-74
2023/08/11 05:10:28;;;;;;;24.90;5.30;;;27.80;54.30;;;;;;5088532;28;20590;-75
2023/08/11 05:12:55;;;;;;;32.53;6.53;;;27.90;54.40;;;;;;5103883;28;20202;-76
2023/08/11 05:15:22;;;;;;;27.10;5.67;;;27.90;54.40;;;;;;5102963;28;20198;-77
2023/08/11 05:17:49;;;;;;;23.43;5.73;;;27.80;54.40;;;;;;5092750;28;20199;-75
2023/08/11 05:20:17;;;;;;;24.53;5.27;;;27.80;54.40;;;;;;5090838;28;20573;-79
2023/08/11 05:22:47;;;;;;;29.27;6.17;;;27.80;54.40;;;;;;5084238;28;20199;-81
2023/08/11 05:25:14;;;;;;;44.10;7.30;;;27.80;54.40;;;;;;5099231;28;20289;-74
2023/08/11 05:27:41;;;;;;;27.77;5.77;;;27.80;54.40;;;;;;5096845;28;20569;-75
2023/08/11 05:30:09;;;;;;;25.50;5.50;;;27.80;54.40;;;;;;5090552;28;20288;-75
2023/08/11 05:32:36;;;;;;;32.00;6.20;;;27.80;54.40;;;;;;5084392;28;20256;-75
2023/08/11 05:35:03;;;;;;;34.00;6.20;;;27.80;54.40;;;;;;5101150;28;20643;-76
2023/08/11 05:37:30;;;;;;;22.57;5.20;;;27.80;54.40;;;;;;5091219;28;20194;-80
2023/08/11 05:39:58;;;;;;;25.27;5.50;;;27.80;54.50;;;;;;5090277;28;20214;-76
2023/08/11 05:42:25;;;;;;;36.97;6.77;;;27.80;54.40;;;;;;5087290;28;20202;-80
2023/08/11 05:44:52;;;;;;;25.23;5.57;;;27.80;54.40;;;;;;5088765;28;20277;-81
2023/08/11 05:47:19;;;;;;;25.47;5.47;;;27.80;55.10;;;;;;5104020;28;20332;-82
2023/08/11 05:49:47;;;;;;;30.07;5.87;;;27.80;54.40;;;;;;5102223;28;20718;-79
2023/08/11 05:52:14;;;;;;;22.37;5.00;;;27.80;54.50;;;;;;5103404;28;20202;-77
2023/08/11 05:54:41;;;;;;;47.87;7.47;;;27.80;54.50;;;;;;5090788;28;20636;-75
2023/08/11 05:57:09;;;;;;;35.23;6.83;;;27.80;54.50;;;;;;5088199;28;20290;-74
2023/08/11 05:59:36;;;;;;;51.03;7.77;;;27.80;54.50;;;;;;5071076;28;20230;-75
2023/08/11 06:02:03;;;;;;;27.03;5.57;;;27.80;54.60;;;;;;5079088;28;20243;-75
2023/08/11 06:04:30;;;;;;;24.27;5.30;;;27.80;54.60;;;;;;5080171;28;20213;-74
2023/08/11 06:06:57;;;;;;;25.80;5.33;;;27.80;54.50;;;;;;5087664;28;20237;-74
2023/08/11 06:09:24;;;;;;;22.20;5.27;;;27.80;54.60;;;;;;5079698;28;20309;-74
2023/08/11 06:11:51;;;;;;;27.47;5.87;;;27.80;54.60;;;;;;5069456;28;20239;-75
2023/08/11 06:14:19;;;;;;;22.47;5.20;;;27.80;54.60;;;;;;5070046;28;20295;-76
2023/08/11 06:16:46;;;;;;;33.53;6.03;;;27.80;54.60;;;;;;5072616;28;20208;-75
2023/08/11 06:19:13;;;;;;;28.47;5.87;;;27.80;54.60;;;;;;5073206;28;20213;-76
2023/08/11 06:21:41;;;;;;;26.27;5.77;;;27.80;54.60;;;;;;5088135;28;20293;-74
2023/08/11 06:24:08;;;;;;;31.57;5.73;;;27.80;54.60;;;;;;5088534;28;20663;-74
2023/08/11 06:26:35;;;;;;;47.37;7.67;;;27.80;54.70;;;;;;5072742;28;20577;-74
2023/08/11 06:29:04;;;;;;;30.90;6.03;;;27.90;54.70;;;;;;5074710;28;20286;-76
2023/08/11 06:31:32;;;;;;;29.13;5.90;;;27.90;54.70;;;;;;5086942;28;20755;-77
2023/08/11 06:33:59;;;;;;;32.70;6.07;;;27.90;54.80;;;;;;5068681;28;20282;-76
2023/08/11 06:36:26;;;;;;;23.23;5.40;;;27.80;54.70;;;;;;5069311;28;20203;-79
2023/08/11 06:38:53;;;;;;;24.33;5.67;;;27.90;54.70;;;;;;5070123;28;20294;-76
2023/08/11 06:41:20;;;;;;;26.77;5.73;;;27.90;54.70;;;;;;5084576;28;20691;-76
2023/08/11 06:43:47;;;;;;;29.03;6.00;;;27.90;54.80;;;;;;5088773;28;20238;-84
2023/08/11 06:46:14;;;;;;;27.27;5.77;;;27.90;54.80;;;;;;5089194;28;20211;-83
2023/08/11 06:48:43;;;;;;;24.33;5.80;;;27.90;54.80;;;;;;5089845;28;20233;-82
2023/08/11 06:51:09;;;;;;;38.23;6.70;;;27.90;54.80;;;;;;5087337;28;20257;-81
2023/08/11 06:53:36;;;;;;;42.47;7.23;;;27.90;54.80;;;;;;5077749;28;20206;-77
2023/08/11 06:56:04;;;;;;;25.27;5.60;;;27.90;54.80;;;;;;5087334;28;20565;-75
2023/08/11 06:58:31;;;;;;;34.53;6.53;;;27.90;54.80;;;;;;5088351;28;20309;-76
2023/08/11 07:00:59;;;;;;;20.80;5.13;;;27.90;54.80;;;;;;5089600;28;20227;-75
2023/08/11 07:03:28;;;;;;;20.57;5.30;;;27.90;54.80;;;;;;5089281;28;20213;-77
2023/08/11 07:05:57;;;;;;;38.43;6.83;;;28.00;54.90;;;;;;5081551;28;20195;-77
2023/08/11 07:08:24;;;;;;;23.97;5.50;;;27.90;54.80;;;;;;5068538;28;20253;-76
2023/08/11 07:10:51;;;;;;;44.03;7.73;;;27.90;54.80;;;;;;5066728;28;20290;-77
2023/08/11 07:13:18;;;;;;;24.37;5.40;;;27.90;55.40;;;;;;5068785;28;20291;-77
2023/08/11 07:15:45;;;;;;;39.67;6.90;;;27.90;54.80;;;;;;5084477;28;20211;-75
2023/08/11 07:18:12;;;;;;;28.57;6.33;;;28.00;54.80;;;;;;5080819;28;20201;-77
2023/08/11 07:20:41;;;;;;;23.30;5.40;;;28.00;54.80;;;;;;5079700;28;20281;-75
2023/08/11 07:23:10;;;;;;;36.33;6.27;;;28.00;54.80;;;;;;5088755;28;20191;-79
2023/08/11 07:25:37;;;;;;;29.37;6.03;;;28.00;54.90;;;;;;5069119;28;20211;-78
2023/08/11 07:28:05;;;;;;;24.57;5.43;;;28.00;54.80;;;;;;5073920;28;20305;-78
2023/08/11 07:30:32;;;;;;;36.17;6.67;;;28.00;54.80;;;;;;5088555;28;20260;-78
2023/08/11 07:33:00;;;;;;;40.03;7.07;;;28.00;54.80;;;;;;5088906;28;20195;-79
2023/08/11 07:35:27;;;;;;;23.80;5.43;;;28.00;55.40;;;;;;5088973;28;20605;-78
2023/08/11 07:37:54;;;;;;;25.47;5.40;;;28.00;54.80;;;;;;5089345;28;20280;-78
2023/08/11 07:40:23;;;;;;;35.43;6.53;;;28.00;54.80;;;;;;5088826;28;20285;-78
2023/08/11 07:42:50;;;;;;;26.33;5.77;;;28.00;54.90;;;;;;5086728;28;20202;-80
2023/08/11 07:45:17;;;;;;;31.67;5.87;;;28.10;55.50;;;;;;5087651;28;20289;-78
2023/08/11 07:47:44;;;;;;;48.53;7.80;;;28.10;54.90;;;;;;5086396;28;20317;-78
2023/08/11 07:50:11;;;;;;;30.27;6.53;;;28.10;54.90;;;;;;5084988;28;20640;-78
2023/08/11 07:52:38;;;;;;;24.40;5.80;;;28.10;55.50;;;;;;5080917;28;20628;-78
2023/08/11 07:55:06;;;;;;;27.03;5.60;;;28.10;54.90;;;;;;5079201;28;20199;-73
2023/08/11 07:57:34;;;;;;;28.63;6.27;;;28.10;54.90;;;;;;5083530;28;20635;-76
2023/08/11 08:00:01;;;;;;;43.27;7.20;;;28.20;55.00;;;;;;5086558;28;20197;-77
2023/08/11 08:02:29;;;;;;;50.23;7.90;;;28.20;55.00;;;;;;5076971;28;20202;-76
2023/08/11 08:04:56;;;;;;;22.73;5.30;;;28.20;55.00;;;;;;5072334;28;20247;-76
2023/08/11 08:07:23;;;;;;;22.63;5.67;;;28.20;55.60;;;;;;5078585;28;20330;-76
2023/08/11 08:09:50;;;;;;;22.43;5.67;;;28.20;55.10;;;;;;5067631;28;20231;-75
2023/08/11 08:12:17;;;;;;;34.90;6.77;;;28.20;55.10;;;;;;5067831;28;20282;-79
2023/08/11 08:14:45;;;;;;;32.57;6.23;;;28.20;55.10;;;;;;5067185;28;20213;-77
2023/08/11 08:17:12;;;;;;;28.37;6.20;;;28.30;55.20;;;;;;5079568;28;20221;-77
2023/08/11 08:19:39;;;;;;;51.17;7.97;;;28.30;55.20;;;;;;5074206;28;20292;-74
2023/08/11 08:22:06;;;;;;;24.50;5.80;;;28.30;55.20;;;;;;5084435;28;20206;-76
2023/08/11 08:24:33;;;;;;;29.03;6.03;;;28.30;55.20;;;;;;5073257;28;20271;-75
2023/08/11 08:27:00;;;;;;;30.43;6.23;;;28.30;55.30;;;;;;5069523;28;20199;-73
2023/08/11 08:29:28;;;;;;;27.53;5.67;;;28.30;55.30;;;;;;5084360;28;20222;-75
2023/08/11 08:31:56;;;;;;;38.00;7.07;;;28.40;55.40;;;;;;5082248;28;20690;-73
2023/08/11 08:34:23;;;;;;;22.33;5.67;;;28.40;55.40;;;;;;5068956;28;20614;-75
2023/08/11 08:38:16;;;;;;;31.57;6.77;;;28.40;54.80;;;;;;5110221;27;20572;-72
2023/08/11 08:40:43;;;;;;;33.40;6.60;;;28.50;55.40;;;;;;5085855;28;20682;-70
2023/08/11 08:43:10;;;;;;;37.73;7.00;;;28.50;55.40;;;;;;5095670;28;20312;-77
2023/08/11 08:45:39;;;;;;;32.33;6.90;;;28.50;55.50;;;;;;5101008;28;20264;-77
2023/08/11 08:48:13;;;;;;;28.93;6.47;;;28.60;55.50;;;;;;5105069;28;20259;-77
2023/08/11 08:50:40;;;;;;;32.03;6.43;;;28.60;55.50;;;;;;5105162;28;20201;-76
2023/08/11 08:53:07;;;;;;;18.73;5.60;;;28.60;55.50;;;;;;5105537;28;20218;-78
2023/08/11 08:55:36;;;;;;;31.50;7.10;;;28.60;55.50;;;;;;5104491;28;20247;-79
2023/08/11 08:58:03;;;;;;;26.53;6.27;;;28.70;55.60;;;;;;5105072;28;20229;-77
2023/08/11 09:00:32;;;;;;;39.63;7.67;;;28.70;55.50;;;;;;5091588;28;20318;-76
2023/08/11 09:03:00;;;;;;;28.63;6.23;;;28.70;55.50;;;;;;5102254;28;20279;-76
2023/08/11 09:05:28;;;;;;;35.23;7.07;;;28.70;55.50;;;;;;5093038;28;20290;-77
2023/08/11 09:07:55;;;;;;;30.23;6.43;;;28.80;55.50;;;;;;5096891;28;20206;-76
2023/08/11 09:10:24;;;;;;;26.27;5.93;;;28.80;55.40;;;;;;5105340;28;20230;-77
2023/08/11 09:12:52;;;;;;;27.43;6.10;;;28.80;55.30;;;;;;5102214;28;20264;-78
2023/08/11 09:15:19;;;;;;;23.47;6.13;;;28.90;55.40;;;;;;5103296;28;20309;-78
2023/08/11 09:17:48;;;;;;;20.03;5.57;;;28.90;55.40;;;;;;5104845;28;20341;-76
2023/08/11 09:20:19;;;;;;;28.60;6.17;;;28.90;55.40;;;;;;5087071;28;20259;-77
2023/08/11 09:22:46;;;;;;;28.40;6.77;;;29.00;56.10;;;;;;5084345;28;20210;-76
2023/08/11 09:25:14;;;;;;;26.63;6.20;;;29.00;56.10;;;;;;5099384;28;20195;-76
2023/08/11 09:27:41;;;;;;;26.33;5.90;;;29.00;55.50;;;;;;5104700;28;20186;-76
2023/08/11 09:30:13;;;;;;;27.93;6.37;;;29.00;55.40;;;;;;5099652;28;20257;-76
2023/08/11 09:32:40;;;;;;;20.43;5.73;;;29.00;55.40;;;;;;5084335;28;20194;-79
2023/08/11 09:35:09;;;;;;;23.23;5.67;;;29.10;55.50;;;;;;5086579;28;20249;-74
2023/08/11 09:37:36;;;;;;;25.33;5.73;;;29.10;55.50;;;;;;5089273;28;20258;-73
2023/08/11 09:40:04;;;;;;;25.77;5.83;;;29.10;55.40;;;;;;5103386;28;20604;-73
2023/08/11 09:42:32;;;;;;;24.77;5.97;;;29.10;55.40;;;;;;5104975;28;20252;-75
2023/08/11 09:44:59;;;;;;;41.20;7.77;;;29.20;55.40;;;;;;5085588;28;20256;-74
2023/08/11 09:47:29;;;;;;;25.00;5.63;;;29.20;55.40;;;;;;5091065;28;20613;-74
2023/08/11 09:49:57;;;;;;;28.53;6.50;;;29.30;55.50;;;;;;5090323;28;20318;-73
2023/08/11 09:52:24;;;;;;;27.90;6.43;;;29.30;55.50;;;;;;5077786;28;20235;-76
2023/08/11 09:54:53;;;;;;;29.07;6.63;;;29.30;55.50;;;;;;5070118;28;20200;-73
2023/08/11 09:57:22;;;;;;;25.10;5.70;;;29.30;55.50;;;;;;5070203;28;20691;-83
2023/08/11 09:59:53;;;;;;;25.87;5.93;;;29.40;55.50;;;;;;5070507;28;20271;-77
2023/08/11 10:02:23;;;;;;;17.87;5.10;;;29.40;55.50;;;;;;5070010;28;20739;-76
2023/08/11 10:04:57;;;;;;;22.80;6.13;;;29.50;55.50;;;;;;5070661;28;20290;-73
2023/08/11 10:07:29;;;;;;;28.50;6.17;;;29.50;55.50;;;;;;5077286;28;20264;-73
2023/08/11 10:09:59;;;;;;;25.57;5.77;;;29.50;55.40;;;;;;5076004;28;20735;-73
2023/08/11 10:12:26;;;;;;;41.73;7.33;;;29.60;55.50;;;;;;5069972;28;20196;-78
2023/08/11 10:14:53;;;;;;;44.07;7.77;;;29.60;55.40;;;;;;5068045;28;20210;-83
2023/08/11 10:17:21;;;;;;;22.87;5.60;;;29.60;55.40;;;;;;5087748;28;20210;-73
2023/08/11 10:19:48;;;;;;;32.23;6.47;;;29.70;55.40;;;;;;5089307;28;20881;-80
2023/08/11 10:22:16;;;;;;;27.80;6.30;;;29.70;55.40;;;;;;5085045;28;20199;-75
2023/08/11 10:24:44;;;;;;;35.73;7.07;;;29.80;55.30;;;;;;5071564;28;20196;-73
2023/08/11 10:27:11;;;;;;;30.30;6.30;;;29.80;55.30;;;;;;5070140;28;20229;-81
2023/08/11 10:29:39;;;;;;;27.60;6.07;;;29.80;55.20;;;;;;5072466;28;20568;-73
2023/08/11 10:32:06;;;;;;;21.83;5.73;;;29.80;55.20;;;;;;5069711;28;20201;-73
2023/08/11 10:34:33;;;;;;;29.13;6.57;;;29.90;55.20;;;;;;5070770;28;20438;-74
2023/08/11 10:37:00;;;;;;;41.10;7.27;;;29.90;55.10;;;;;;5084832;28;20214;-79
2023/08/11 10:39:28;;;;;;;33.00;6.83;;;29.90;55.10;;;;;;5053071;28;20207;-74
2023/08/11 10:41:57;;;;;;;21.90;6.03;;;30.00;55.00;;;;;;5074313;28;20283;-74
2023/08/11 10:44:29;;;;;;;27.87;6.43;;;30.00;55.00;;;;;;5068361;28;20207;-75
2023/08/11 10:46:59;;;;;;;26.63;6.07;;;30.00;55.00;;;;;;5073911;28;20200;-85
2023/08/11 10:49:34;;;;;;;26.23;6.00;;;30.00;55.00;;;;;;5085066;28;20627;-81
2023/08/11 10:52:02;;;;;;;30.00;6.13;;;30.00;55.10;;;;;;5076125;28;20194;-78
2023/08/11 10:54:32;;;;;;;29.07;6.63;;;30.00;55.00;;;;;;5083819;28;20218;-80
2023/08/11 10:57:01;;;;;;;23.20;5.47;;;30.10;55.10;;;;;;5087578;28;20452;-72
2023/08/11 10:59:30;;;;;;;40.73;7.77;;;30.10;55.00;;;;;;5071869;28;20574;-81
2023/08/11 11:01:59;;;;;;;33.70;6.97;;;30.10;55.00;;;;;;5068775;28;20702;-86
2023/08/11 11:04:30;;;;;;;25.50;5.90;;;30.20;55.00;;;;;;5084172;28;20202;-80
2023/08/11 11:06:59;;;;;;;28.30;6.20;;;30.20;54.90;;;;;;5080494;28;20202;-83
2023/08/11 11:09:27;;;;;;;32.47;6.47;;;30.20;54.90;;;;;;5089226;28;20640;-81
2023/08/11 11:11:58;;;;;;;21.98;5.53;;;30.30;54.80;;;;;;5087451;28;20209;-83
2023/08/11 11:14:25;;;;;;;27.93;6.33;;;30.30;54.70;;;;;;5089512;28;20294;-77
2023/08/11 11:16:54;;;;;;;27.70;6.63;;;30.30;54.60;;;;;;5089118;28;20228;-78
2023/08/11 11:19:24;;;;;;;26.73;6.07;;;30.30;54.60;;;;;;5070834;28;20199;-79
2023/08/11 11:21:51;;;;;;;26.93;6.27;;;30.30;54.60;;;;;;5075877;28;20286;-81
2023/08/11 11:24:18;;;;;;;36.17;6.93;;;30.20;54.50;;;;;;5070984;28;20264;-78
2023/08/11 11:26:45;;;;;;;24.83;6.13;;;30.30;54.60;;;;;;5072514;28;20662;-81
2023/08/11 11:29:14;;;;;;;25.67;6.03;;;30.30;54.60;;;;;;5086008;28;20203;-79
2023/08/11 11:31:41;;;;;;;22.87;5.27;;;30.20;54.60;;;;;;5077567;28;20314;-77
2023/08/11 11:34:09;;;;;;;24.43;5.80;;;30.20;54.70;;;;;;5068399;28;20295;-77
2023/08/11 11:36:36;;;;;;;42.33;7.30;;;30.20;54.70;;;;;;5069115;28;20233;-80
2023/08/11 11:39:03;;;;;;;33.75;6.82;;;30.20;54.80;;;;;;5069825;28;20231;-77
2023/08/11 11:41:30;;;;;;;30.60;6.40;;;30.20;54.80;;;;;;5077233;28;20195;-78
2023/08/11 11:43:57;;;;;;;27.10;5.80;;;30.30;54.90;;;;;;5078188;28;20203;-75
2023/08/11 11:46:26;;;;;;;44.20;7.43;;;30.20;54.70;;;;;;5075406;28;20317;-76
2023/08/11 11:48:54;;;;;;;22.55;5.28;;;30.30;54.70;;;;;;5070062;28;20287;-75
2023/08/11 11:51:24;;;;;;;23.50;6.10;;;30.30;54.60;;;;;;5073779;28;20205;-76
2023/08/11 11:53:53;;;;;;;45.90;7.47;;;30.30;54.70;;;;;;5073272;28;20810;-75
2023/08/11 11:56:21;;;;;;;33.30;6.73;;;30.40;54.70;;;;;;5072292;28;20268;-75
2023/08/11 11:58:50;;;;;;;27.90;6.03;;;30.40;54.80;;;;;;5069741;28;20235;-76
2023/08/11 12:01:18;;;;;;;31.10;6.67;;;30.40;54.70;;;;;;5069482;28;20687;-79
2023/08/11 12:03:48;;;;;;;70.57;9.90;;;30.40;54.70;;;;;;5082779;28;20199;-76
2023/08/11 12:06:17;;;;;;;27.90;6.17;;;30.40;54.60;;;;;;5069716;28;20199;-78
2023/08/11 12:08:45;;;;;;;57.33;8.60;;;30.50;54.70;;;;;;5079428;28;20666;-77
2023/08/11 12:11:14;;;;;;;31.97;7.10;;;30.50;54.80;;;;;;5066805;28;20231;-80
2023/08/11 12:14:50;;;;;;;53.80;7.77;;;30.50;54.10;;;;;;5094354;27;21166;-77
2023/08/11 12:17:17;;;;;;;23.13;5.73;;;30.40;54.50;;;;;;5071731;28;20686;-86
2023/08/11 12:19:46;;;;;;;27.93;5.90;;;30.50;54.50;;;;;;5079722;28;20693;-80
2023/08/11 12:22:13;;;;;;;39.85;6.85;;;30.50;54.50;;;;;;5077013;28;20231;-86
2023/08/11 12:24:40;;;;;;;28.93;6.20;;;30.50;54.50;;;;;;5084402;28;20584;-80
2023/08/11 12:27:09;;;;;;;39.00;6.70;;;30.50;54.50;;;;;;5082296;28;20714;-79
2023/08/11 12:29:36;;;;;;;36.97;6.67;;;30.50;54.50;;;;;;5082288;28;20264;-79
2023/08/11 12:32:04;;;;;;;34.30;6.87;;;30.50;54.50;;;;;;5083669;28;20220;-80
2023/08/11 12:34:31;;;;;;;38.30;6.57;;;30.40;54.50;;;;;;5070815;28;20303;-77
2023/08/11 12:36:58;;;;;;;67.13;9.53;;;30.40;54.50;;;;;;5076264;28;20283;-76
2023/08/11 12:39:25;;;;;;;36.00;6.57;;;30.40;54.50;;;;;;5079198;28;20191;-75
2023/08/11 12:41:52;;;;;;;33.00;6.23;;;30.40;54.50;;;;;;5071004;28;20256;-77